createdAt,value
2018-05-04T00:01:07.447Z,2.53
2018-05-04T00:03:36.480Z,2.50
2018-05-04T00:06:04.771Z,2.27
2018-05-04T00:08:33.072Z,2.60
2018-05-04T00:11:01.386Z,2.47
2018-05-04T00:13:30.448Z,2.73
2018-05-04T00:15:58.737Z,2.60
2018-05-04T00:18:27.003Z,2.60
2018-05-04T00:20:55.297Z,2.60
2018-05-04T00:23:24.353Z,3.00
2018-05-04T00:25:52.661Z,2.90
2018-05-04T00:28:20.904Z,2.40
2018-05-04T00:30:49.185Z,2.90
2018-05-04T00:33:17.463Z,3.17
2018-05-04T00:35:45.750Z,2.77
2018-05-04T00:38:14.028Z,3.20
2018-05-04T00:40:42.288Z,2.63
2018-05-04T00:43:10.524Z,3.07
2018-05-04T00:45:38.820Z,2.77
2018-05-04T00:48:07.152Z,2.90
2018-05-04T00:50:36.188Z,2.53
2018-05-04T00:53:04.506Z,2.73
2018-05-04T00:55:32.766Z,2.63
2018-05-04T00:58:01.052Z,2.90
2018-05-04T01:00:29.349Z,2.80
2018-05-04T01:02:57.646Z,3.03
2018-05-04T01:05:26.793Z,2.73
2018-05-04T01:07:55.072Z,2.87
2018-05-04T01:10:23.343Z,2.73
2018-05-04T01:12:51.620Z,2.93
2018-05-04T01:15:20.370Z,2.77
2018-05-04T01:17:48.618Z,2.90
2018-05-04T01:20:16.862Z,2.93
2018-05-04T01:22:45.124Z,3.00
2018-05-04T01:25:13.371Z,2.83
2018-05-04T01:27:41.670Z,2.73
2018-05-04T01:30:09.907Z,3.50
2018-05-04T01:32:38.940Z,2.73
2018-05-04T01:35:07.251Z,3.03
2018-05-04T01:37:35.494Z,2.80
2018-05-04T01:40:03.809Z,3.00
2018-05-04T01:42:32.089Z,2.90
2018-05-04T01:45:00.326Z,2.83
2018-05-04T01:47:28.595Z,3.03
2018-05-04T01:49:56.860Z,2.90
2018-05-04T01:52:25.084Z,2.77
2018-05-04T01:54:53.368Z,2.83
2018-05-04T01:57:21.640Z,3.13
2018-05-04T01:59:49.947Z,3.47
2018-05-04T02:02:18.999Z,3.30
2018-05-04T02:04:47.313Z,3.10
2018-05-04T02:07:16.360Z,3.30
2018-05-04T02:09:44.671Z,2.90
2018-05-04T02:12:12.944Z,2.70
2018-05-04T02:14:41.250Z,3.00
2018-05-04T02:17:10.251Z,2.90
2018-05-04T02:19:39.235Z,3.20
2018-05-04T02:22:08.240Z,2.60
2018-05-04T02:24:37.265Z,2.67
2018-05-04T02:27:05.506Z,2.93
2018-05-04T02:29:34.565Z,3.43
2018-05-04T02:32:02.810Z,2.93
2018-05-04T02:34:31.289Z,3.10
2018-05-04T02:36:59.571Z,3.43
2018-05-04T02:39:27.888Z,3.53
2018-05-04T02:41:56.138Z,3.23
2018-05-04T02:44:24.391Z,2.90
2018-05-04T02:46:53.446Z,3.40
2018-05-04T02:49:22.507Z,3.27
2018-05-04T02:51:50.848Z,3.87
2018-05-04T02:54:19.140Z,3.07
2018-05-04T02:56:47.389Z,3.47
2018-05-04T02:59:16.447Z,3.47
2018-05-04T03:01:44.737Z,3.70
2018-05-04T03:04:13.058Z,3.90
2018-05-04T03:06:41.291Z,3.67
2018-05-04T03:09:10.374Z,3.40
2018-05-04T03:11:38.624Z,3.50
2018-05-04T03:14:08.589Z,3.40
2018-05-04T03:16:37.620Z,3.33
2018-05-04T03:19:05.850Z,3.33
2018-05-04T03:21:34.116Z,3.57
2018-05-04T03:24:02.370Z,3.27
2018-05-04T03:26:30.620Z,3.60
2018-05-04T03:28:58.918Z,3.40
2018-05-04T03:31:27.211Z,3.43
2018-05-04T03:33:55.472Z,3.20
2018-05-04T03:36:23.730Z,3.40
2018-05-04T03:38:51.986Z,3.77
2018-05-04T03:41:21.009Z,3.50
2018-05-04T03:43:49.307Z,3.90
2018-05-04T03:46:17.555Z,3.57
2018-05-04T03:48:45.881Z,3.87
2018-05-04T03:51:14.205Z,3.20
2018-05-04T03:53:42.466Z,3.63
2018-05-04T03:56:11.552Z,3.70
2018-05-04T03:58:58.271Z,3.60
2018-05-04T04:01:44.986Z,3.63
2018-05-04T04:04:13.309Z,3.50
2018-05-04T04:06:41.649Z,4.07
2018-05-04T04:09:09.924Z,3.80
2018-05-04T04:11:38.214Z,3.60
2018-05-04T04:14:06.446Z,3.50
2018-05-04T04:16:35.549Z,3.97
2018-05-04T04:19:04.556Z,3.67
2018-05-04T04:21:33.649Z,3.83
2018-05-04T04:24:02.645Z,3.67
2018-05-04T04:26:31.701Z,4.07
2018-05-04T04:28:59.950Z,4.03
2018-05-04T04:31:28.192Z,3.80
2018-05-04T04:33:56.422Z,3.80
2018-05-04T04:36:24.705Z,4.13
2018-05-04T04:38:53.053Z,3.80
2018-05-04T04:41:22.984Z,4.70
2018-05-04T04:43:52.042Z,4.37
2018-05-04T04:46:22.965Z,4.23
2018-05-04T04:48:52.278Z,4.17
2018-05-04T04:51:20.589Z,4.10
2018-05-04T04:53:49.599Z,4.23
2018-05-04T04:56:17.850Z,3.80
2018-05-04T04:58:46.132Z,4.17
2018-05-04T05:01:14.383Z,3.93
2018-05-04T05:03:42.656Z,4.10
2018-05-04T05:06:10.901Z,4.33
2018-05-04T05:08:39.187Z,4.73
2018-05-04T05:11:08.237Z,4.10
2018-05-04T05:13:36.520Z,4.80
2018-05-04T05:16:05.569Z,4.63
2018-05-04T05:18:33.804Z,5.00
2018-05-04T05:21:02.062Z,4.73
2018-05-04T05:23:30.367Z,4.67
2018-05-04T05:25:58.668Z,4.73
2018-05-04T05:28:27.693Z,5.27
2018-05-04T05:30:55.966Z,5.20
2018-05-04T05:33:24.241Z,4.90
2018-05-04T05:35:52.519Z,4.80
2018-05-04T05:38:20.747Z,4.80
2018-05-04T05:40:49.063Z,4.30
2018-05-04T05:43:17.352Z,4.73
2018-05-04T05:45:45.632Z,5.07
2018-05-04T05:48:13.889Z,4.13
2018-05-04T05:50:42.204Z,5.37
2018-05-04T05:53:10.507Z,4.27
2018-05-04T05:55:38.805Z,4.37
2018-05-04T05:58:07.906Z,5.03
2018-05-04T06:00:36.084Z,4.63
2018-05-04T06:03:05.110Z,4.40
2018-05-04T06:05:33.391Z,4.67
2018-05-04T06:08:01.656Z,4.47
2018-05-04T06:10:29.976Z,4.77
2018-05-04T06:12:58.316Z,4.67
2018-05-04T06:15:26.552Z,4.50
2018-05-04T06:17:55.607Z,5.10
2018-05-04T06:20:23.913Z,5.63
2018-05-04T06:22:52.169Z,4.90
2018-05-04T06:25:20.448Z,4.50
2018-05-04T06:27:48.725Z,4.77
2018-05-04T06:30:17.001Z,5.17
2018-05-04T06:32:45.286Z,5.00
2018-05-04T06:35:13.513Z,4.60
2018-05-04T06:37:41.806Z,4.43
2018-05-04T06:40:10.075Z,4.90
2018-05-04T06:42:38.336Z,5.30
2018-05-04T06:45:06.617Z,4.77
2018-05-04T06:47:34.911Z,4.97
2018-05-04T06:50:03.190Z,5.07
2018-05-04T06:52:31.471Z,4.90
2018-05-04T06:54:59.784Z,4.80
2018-05-04T06:57:28.866Z,4.80
2018-05-04T06:59:57.148Z,4.60
2018-05-04T07:02:25.455Z,4.90
2018-05-04T07:04:54.467Z,4.67
2018-05-04T07:07:22.751Z,4.70
2018-05-04T07:09:51.070Z,5.03
2018-05-04T07:12:19.377Z,4.60
2018-05-04T07:14:48.425Z,4.77
2018-05-04T07:17:16.708Z,4.80
2018-05-04T07:19:44.970Z,4.70
2018-05-04T07:22:13.256Z,4.60
2018-05-04T07:24:41.503Z,4.80
2018-05-04T07:27:09.788Z,4.77
2018-05-04T07:29:38.257Z,5.23
2018-05-04T07:32:06.513Z,4.27
2018-05-04T07:34:35.573Z,4.20
2018-05-04T07:37:04.658Z,4.47
2018-05-04T07:39:32.913Z,4.30
2018-05-04T07:42:01.207Z,4.57
2018-05-04T07:44:29.495Z,4.23
2018-05-04T07:46:57.813Z,4.50
2018-05-04T07:49:26.940Z,4.37
2018-05-04T07:51:55.234Z,4.30
2018-05-04T07:54:23.521Z,4.20
2018-05-04T07:56:51.798Z,3.97
2018-05-04T07:59:20.089Z,4.27
2018-05-04T08:01:48.407Z,4.10
2018-05-04T08:04:16.668Z,4.10
2018-05-04T08:06:45.676Z,4.10
2018-05-04T08:09:14.718Z,4.00
2018-05-04T08:11:43.027Z,3.73
2018-05-04T08:14:12.094Z,4.33
2018-05-04T08:16:40.397Z,4.10
2018-05-04T08:19:09.508Z,4.33
2018-05-04T08:21:37.818Z,4.17
2018-05-04T08:24:06.105Z,4.30
2018-05-04T08:26:34.416Z,4.20
2018-05-04T08:29:02.700Z,3.63
2018-05-04T08:31:31.025Z,4.10
2018-05-04T08:33:59.317Z,4.30
2018-05-04T08:36:27.600Z,4.33
2018-05-04T08:38:55.953Z,4.20
2018-05-04T08:41:24.232Z,3.90
2018-05-04T08:43:52.529Z,4.37
2018-05-04T08:46:20.850Z,3.93
2018-05-04T08:48:49.951Z,5.87
2018-05-04T08:51:18.257Z,4.60
2018-05-04T08:53:46.561Z,4.33
2018-05-04T08:56:14.841Z,4.00
2018-05-04T08:58:43.157Z,4.00
2018-05-04T09:01:12.213Z,4.40
2018-05-04T09:03:40.487Z,4.00
2018-05-04T09:06:08.881Z,4.50
2018-05-04T09:08:37.114Z,4.23
2018-05-04T09:11:05.452Z,3.70
2018-05-04T09:13:33.775Z,4.00
2018-05-04T09:16:02.177Z,4.07
2018-05-04T09:18:30.480Z,4.10
2018-05-04T09:20:58.748Z,3.87
2018-05-04T09:23:27.052Z,3.60
2018-05-04T09:25:56.107Z,4.30
2018-05-04T09:28:24.394Z,3.60
2018-05-04T09:30:52.667Z,3.70
2018-05-04T09:33:20.968Z,4.47
2018-05-04T09:35:50.069Z,4.13
2018-05-04T09:38:19.126Z,3.87
2018-05-04T09:40:47.447Z,3.40
2018-05-04T09:43:16.497Z,3.80
2018-05-04T09:45:44.792Z,4.13
2018-05-04T09:48:13.024Z,3.73
2018-05-04T09:50:41.331Z,3.47
2018-05-04T09:53:09.638Z,3.63
2018-05-04T09:55:38.669Z,3.70
2018-05-04T09:58:06.922Z,3.97
2018-05-04T10:00:35.968Z,3.87
2018-05-04T10:03:04.307Z,3.93
2018-05-04T10:05:32.568Z,4.57
2018-05-04T10:08:01.618Z,4.60
2018-05-04T10:10:29.910Z,3.93
2018-05-04T10:12:58.197Z,3.80
2018-05-04T10:15:26.480Z,4.50
2018-05-04T10:17:54.736Z,4.13
2018-05-04T10:20:22.997Z,4.33
2018-05-04T10:22:51.321Z,4.07
2018-05-04T10:25:20.375Z,3.90
2018-05-04T10:27:48.694Z,3.83
2018-05-04T10:30:17.696Z,3.40
2018-05-04T10:32:46.809Z,3.87
2018-05-04T10:35:15.068Z,4.30
2018-05-04T10:37:44.149Z,3.70
2018-05-04T10:40:13.219Z,3.60
2018-05-04T10:42:41.525Z,3.73
2018-05-04T10:45:09.805Z,3.30
2018-05-04T10:47:38.909Z,2.80
2018-05-04T10:50:07.938Z,4.00
2018-05-04T10:52:36.276Z,3.73
2018-05-04T10:55:05.400Z,3.70
2018-05-04T10:57:33.754Z,4.33
2018-05-04T11:00:02.003Z,3.33
2018-05-04T11:02:30.306Z,3.80
2018-05-04T11:04:59.371Z,4.10
2018-05-04T11:07:27.650Z,3.57
2018-05-04T11:09:55.957Z,3.83
2018-05-04T11:12:25.028Z,4.13
2018-05-04T11:14:53.306Z,3.37
2018-05-04T11:17:21.650Z,3.57
2018-05-04T11:19:49.940Z,3.87
2018-05-04T11:22:18.212Z,3.57
2018-05-04T11:24:46.552Z,3.30
2018-05-04T11:27:14.868Z,3.53
2018-05-04T11:29:43.167Z,3.50
2018-05-04T11:32:11.466Z,3.60
2018-05-04T11:34:40.487Z,3.57
2018-05-04T11:37:08.774Z,3.60
2018-05-04T11:39:37.081Z,3.90
2018-05-04T11:42:05.396Z,3.67
2018-05-04T11:44:34.426Z,3.83
2018-05-04T11:47:02.716Z,4.03
2018-05-04T11:49:31.063Z,3.40
2018-05-04T11:51:59.281Z,3.67
2018-05-04T11:54:27.577Z,3.90
2018-05-04T11:56:56.657Z,3.53
2018-05-04T11:59:24.972Z,3.47
2018-05-04T12:01:54.053Z,3.20
2018-05-04T12:04:22.380Z,3.67
2018-05-04T12:06:50.632Z,3.97
2018-05-04T12:09:18.956Z,3.13
2018-05-04T12:11:47.221Z,4.90
2018-05-04T12:14:15.487Z,4.47
2018-05-04T12:16:43.783Z,6.27
2018-05-04T12:19:12.094Z,5.03
2018-05-04T12:21:40.380Z,4.10
2018-05-04T12:24:09.436Z,4.00
2018-05-04T12:26:37.699Z,4.50
2018-05-04T12:29:06.027Z,4.50
2018-05-04T12:31:35.108Z,5.30
2018-05-04T12:34:04.177Z,4.73
2018-05-04T12:36:32.455Z,4.83
2018-05-04T12:39:00.743Z,4.33
2018-05-04T12:41:29.024Z,3.70
2018-05-04T12:43:57.301Z,4.70
2018-05-04T12:46:25.553Z,4.37
2018-05-04T12:48:53.831Z,4.63
2018-05-04T12:51:22.109Z,4.20
2018-05-04T12:53:50.470Z,4.73
2018-05-04T12:56:19.300Z,4.17
2018-05-04T12:58:47.555Z,4.70
2018-05-04T13:01:15.885Z,4.57
2018-05-04T13:03:44.924Z,4.40
2018-05-04T13:06:13.184Z,4.97
2018-05-04T13:08:41.471Z,4.43
2018-05-04T13:11:09.714Z,4.57
2018-05-04T13:13:38.807Z,4.80
2018-05-04T13:16:07.851Z,5.43
2018-05-04T13:18:36.130Z,5.10
2018-05-04T13:21:04.405Z,4.80
2018-05-04T13:23:32.705Z,4.40
2018-05-04T13:26:00.973Z,4.73
2018-05-04T13:28:29.272Z,4.53
2018-05-04T13:30:58.493Z,4.77
2018-05-04T13:33:26.854Z,5.17
2018-05-04T13:35:55.075Z,5.07
2018-05-04T13:38:23.393Z,5.57
2018-05-04T13:40:52.460Z,5.33
2018-05-04T13:43:20.736Z,5.03
2018-05-04T13:45:49.113Z,4.40
2018-05-04T13:48:17.483Z,4.60
2018-05-04T13:50:45.764Z,4.83
2018-05-04T13:53:14.442Z,4.30
2018-05-04T13:55:43.640Z,4.37
2018-05-04T13:58:11.902Z,4.40
2018-05-04T14:00:40.204Z,4.07
2018-05-04T14:03:10.153Z,5.53
2018-05-04T14:05:38.451Z,5.10
2018-05-04T14:08:07.560Z,4.93
2018-05-04T14:10:35.824Z,4.80
2018-05-04T14:13:04.064Z,4.30
2018-05-04T14:15:33.050Z,4.00
2018-05-04T14:18:02.081Z,4.37
2018-05-04T14:20:30.340Z,5.17
2018-05-04T14:22:58.610Z,4.20
2018-05-04T14:25:27.703Z,5.50
2018-05-04T14:27:57.063Z,5.27
2018-05-04T14:30:25.359Z,4.67
2018-05-04T14:32:53.606Z,4.60
2018-05-04T14:35:21.923Z,4.40
2018-05-04T14:37:51.139Z,4.47
2018-05-04T14:40:19.388Z,4.87
2018-05-04T14:42:48.541Z,4.00
2018-05-04T14:45:16.819Z,4.90
2018-05-04T14:47:45.081Z,4.60
2018-05-04T14:50:13.351Z,4.50
2018-05-04T14:52:41.578Z,4.20
2018-05-04T14:55:09.886Z,4.10
2018-05-04T14:57:39.262Z,4.57
2018-05-04T15:00:07.960Z,4.33
2018-05-04T15:02:36.540Z,3.97
2018-05-04T15:05:05.685Z,3.50
2018-05-04T15:07:33.975Z,4.23
2018-05-04T15:10:03.004Z,3.90
2018-05-04T15:12:31.315Z,4.20
2018-05-04T15:14:59.627Z,4.50
2018-05-04T15:17:27.888Z,4.00
2018-05-04T15:19:56.234Z,3.90
2018-05-04T15:22:25.254Z,3.83
2018-05-04T15:24:53.615Z,3.70
2018-05-04T15:27:22.618Z,3.97
2018-05-04T15:29:50.873Z,3.53
2018-05-04T15:32:19.929Z,3.90
2018-05-04T15:34:48.972Z,3.83
2018-05-04T15:37:17.997Z,3.70
2018-05-04T15:39:46.290Z,4.50
2018-05-04T15:42:14.620Z,4.27
2018-05-04T15:44:43.644Z,4.60
2018-05-04T15:47:11.968Z,4.33
2018-05-04T15:49:40.234Z,4.50
2018-05-04T15:52:08.541Z,4.77
2018-05-04T15:54:37.706Z,4.10
2018-05-04T15:57:06.781Z,4.57
2018-05-04T15:59:35.121Z,4.07
2018-05-04T16:02:04.176Z,4.00
2018-05-04T16:04:32.424Z,4.07
2018-05-04T16:07:00.699Z,4.00
2018-05-04T16:09:28.994Z,3.67
2018-05-04T16:11:57.238Z,3.50
2018-05-04T16:14:25.504Z,4.13
2018-05-04T16:16:54.644Z,3.23
2018-05-04T16:19:22.923Z,3.50
2018-05-04T16:21:51.262Z,3.43
2018-05-04T16:24:19.488Z,4.17
2018-05-04T16:26:47.768Z,3.60
2018-05-04T16:29:16.068Z,3.57
2018-05-04T16:31:45.156Z,3.60
2018-05-04T16:34:13.414Z,3.53
2018-05-04T16:36:41.715Z,3.40
2018-05-04T16:39:10.772Z,3.23
2018-05-04T16:41:39.087Z,3.37
2018-05-04T16:44:07.390Z,3.57
2018-05-04T16:46:41.031Z,3.63
2018-05-04T16:49:15.615Z,3.67
2018-05-04T16:51:43.900Z,3.23
2018-05-04T16:54:12.204Z,2.83
2018-05-04T16:56:40.497Z,3.60
2018-05-04T16:59:08.797Z,2.90
2018-05-04T17:01:37.110Z,3.30
2018-05-04T17:04:05.474Z,3.17
2018-05-04T17:06:34.841Z,2.87
2018-05-04T17:09:03.176Z,2.97
2018-05-04T17:11:31.512Z,2.97
2018-05-04T17:14:00.550Z,3.27
2018-05-04T17:16:28.913Z,2.77
2018-05-04T17:18:57.200Z,3.13
2018-05-04T17:21:25.520Z,2.90
2018-05-04T17:23:53.785Z,3.30
2018-05-04T17:26:22.144Z,3.33
2018-05-04T17:28:50.407Z,3.30
2018-05-04T17:31:18.789Z,3.07
2018-05-04T17:33:47.109Z,3.43
2018-05-04T17:36:15.397Z,3.43
2018-05-04T17:38:43.678Z,3.00
2018-05-04T17:41:11.990Z,3.10
2018-05-04T17:43:40.275Z,3.50
2018-05-04T17:46:08.518Z,3.50
2018-05-04T17:48:37.663Z,3.33
2018-05-04T17:51:05.951Z,3.43
2018-05-04T17:53:34.302Z,3.73
2018-05-04T17:56:06.425Z,3.53
2018-05-04T17:58:35.492Z,3.37
2018-05-04T18:01:03.778Z,3.30
2018-05-04T18:03:32.077Z,3.17
2018-05-04T18:06:01.182Z,3.97
2018-05-04T18:08:30.266Z,3.60
2018-05-04T18:10:58.558Z,3.77
2018-05-04T18:13:27.581Z,3.60
2018-05-04T18:15:55.902Z,3.50
2018-05-04T18:18:24.174Z,3.53
2018-05-04T18:20:52.479Z,3.63
2018-05-04T18:23:21.509Z,3.80
2018-05-04T18:25:49.779Z,3.70
2018-05-04T18:28:18.121Z,3.80
2018-05-04T18:30:47.192Z,3.73
2018-05-04T18:33:15.515Z,3.93
2018-05-04T18:35:44.542Z,3.63
2018-05-04T18:38:12.821Z,3.80
2018-05-04T18:40:43.519Z,4.07
2018-05-04T18:43:11.960Z,3.47
2018-05-04T18:45:40.241Z,3.90
2018-05-04T18:48:08.549Z,4.07
2018-05-04T18:50:37.611Z,4.40
2018-05-04T18:53:05.858Z,4.07
2018-05-04T18:55:34.189Z,4.57
2018-05-04T18:58:03.248Z,4.37
2018-05-04T19:00:31.498Z,3.97
2018-05-04T19:03:05.335Z,4.20
2018-05-04T19:05:33.680Z,5.33
2018-05-04T19:08:02.010Z,4.70
2018-05-04T19:10:31.135Z,5.00
2018-05-04T19:13:00.213Z,4.23
2018-05-04T19:15:29.290Z,4.50
2018-05-04T19:17:57.589Z,4.60
2018-05-04T19:20:26.643Z,4.47
2018-05-04T19:22:55.112Z,4.50
2018-05-04T19:25:23.386Z,4.83
2018-05-04T19:27:51.645Z,4.60
2018-05-04T19:30:19.895Z,5.30
2018-05-04T19:32:48.906Z,5.40
2018-05-04T19:35:17.930Z,4.80
2018-05-04T19:37:46.249Z,5.20
2018-05-04T19:40:14.523Z,5.70
2018-05-04T19:42:42.778Z,5.23
2018-05-04T19:45:11.044Z,5.43
2018-05-04T19:47:39.334Z,5.67
2018-05-04T19:50:07.571Z,5.23
2018-05-04T19:52:35.894Z,5.40
2018-05-04T19:55:04.159Z,5.07
2018-05-04T19:57:32.416Z,5.33
2018-05-04T20:00:00.687Z,5.40
2018-05-04T20:02:28.993Z,5.20
2018-05-04T20:04:57.247Z,5.00
2018-05-04T20:07:25.524Z,5.23
2018-05-04T20:09:53.740Z,4.87
2018-05-04T20:12:22.004Z,5.27
2018-05-04T20:14:50.253Z,5.33
2018-05-04T20:17:18.525Z,5.13
2018-05-04T20:19:46.809Z,4.90
2018-05-04T20:22:24.977Z,5.00
2018-05-04T20:24:55.668Z,4.83
2018-05-04T20:27:28.305Z,4.60
2018-05-04T22:54:12.941Z,5.10
2018-05-04T22:56:41.957Z,5.40
2018-05-04T22:59:10.218Z,5.20
2018-05-04T23:01:39.251Z,5.60
2018-05-04T23:04:07.583Z,5.70
2018-05-04T23:06:35.828Z,6.10
2018-05-04T23:09:04.278Z,5.37
2018-05-04T23:11:32.464Z,5.87
2018-05-04T23:14:00.766Z,6.03
2018-05-04T23:16:29.033Z,5.90
2018-05-04T23:18:57.325Z,5.43
2018-05-04T23:21:25.594Z,6.10
2018-05-04T23:23:53.916Z,5.70
2018-05-04T23:26:22.151Z,5.57
2018-05-04T23:28:50.408Z,5.43
2018-05-04T23:31:18.749Z,5.60
2018-05-04T23:33:47.010Z,5.13
2018-05-04T23:36:16.049Z,5.60
2018-05-04T23:38:44.350Z,5.60
2018-05-04T23:41:12.632Z,5.20
2018-05-04T23:43:40.936Z,5.00
2018-05-04T23:46:09.963Z,5.60
2018-05-04T23:48:38.282Z,4.73
2018-05-04T23:51:07.327Z,5.13
2018-05-04T23:53:35.625Z,5.00
2018-05-04T23:56:03.976Z,5.10
2018-05-04T23:58:32.241Z,4.63
